sensor_id;sensor_type;location;lat;lon;timestamp;pressure;altitude;pressure_sealevel;temperature
11849;BMP180;5983;49.966;8.052;2023-09-30T00:00:03;101410.00;;;17.00
11849;BMP180;5983;49.966;8.052;2023-09-30T00:02:34;101409.00;;;17.00
11849;BMP180;5983;49.966;8.052;2023-09-30T00:05:00;101424.00;;;17.00
11849;BMP180;5983;49.966;8.052;2023-09-30T00:07:27;101423.00;;;17.00
11849;BMP180;5983;49.966;8.052;2023-09-30T00:09:55;101424.00;;;17.00
11849;BMP180;5983;49.966;8.052;2023-09-30T00:12:22;101432.00;;;17.00
11849;BMP180;5983;49.966;8.052;2023-09-30T00:14:49;101435.00;;;17.00
11849;BMP180;5983;49.966;8.052;2023-09-30T00:17:15;101428.00;;;17.00
11849;BMP180;5983;49.966;8.052;2023-09-30T00:19:42;101421.00;;;16.90
11849;BMP180;5983;49.966;8.052;2023-09-30T00:22:10;101427.00;;;16.90
11849;BMP180;5983;49.966;8.052;2023-09-30T00:24:37;101429.00;;;16.90
11849;BMP180;5983;49.966;8.052;2023-09-30T00:27:05;101431.00;;;16.90
11849;BMP180;5983;49.966;8.052;2023-09-30T00:29:32;101437.00;;;16.80
11849;BMP180;5983;49.966;8.052;2023-09-30T00:31:59;101444.00;;;16.80
11849;BMP180;5983;49.966;8.052;2023-09-30T00:34:25;101441.00;;;16.80
11849;BMP180;5983;49.966;8.052;2023-09-30T00:36:52;101437.00;;;16.80
11849;BMP180;5983;49.966;8.052;2023-09-30T00:39:19;101439.00;;;16.80
11849;BMP180;5983;49.966;8.052;2023-09-30T00:41:46;101443.00;;;16.70
11849;BMP180;5983;49.966;8.052;2023-09-30T00:44:14;101447.00;;;16.70
11849;BMP180;5983;49.966;8.052;2023-09-30T00:46:42;101438.00;;;16.70
11849;BMP180;5983;49.966;8.052;2023-09-30T00:49:09;101440.00;;;16.70
11849;BMP180;5983;49.966;8.052;2023-09-30T00:51:37;101445.00;;;16.70
11849;BMP180;5983;49.966;8.052;2023-09-30T00:54:05;101444.00;;;16.70
11849;BMP180;5983;49.966;8.052;2023-09-30T00:56:32;101442.00;;;16.60
11849;BMP180;5983;49.966;8.052;2023-09-30T00:59:00;101456.00;;;16.60
11849;BMP180;5983;49.966;8.052;2023-09-30T01:01:28;101452.00;;;16.60
11849;BMP180;5983;49.966;8.052;2023-09-30T01:03:55;101458.00;;;16.60
11849;BMP180;5983;49.966;8.052;2023-09-30T01:06:23;101454.00;;;16.50
11849;BMP180;5983;49.966;8.052;2023-09-30T01:08:49;101464.00;;;16.50
11849;BMP180;5983;49.966;8.052;2023-09-30T01:11:15;101460.00;;;16.50
11849;BMP180;5983;49.966;8.052;2023-09-30T01:13:43;101458.00;;;16.50
11849;BMP180;5983;49.966;8.052;2023-09-30T01:16:10;101465.00;;;16.40
11849;BMP180;5983;49.966;8.052;2023-09-30T01:18:39;101467.00;;;16.40
11849;BMP180;5983;49.966;8.052;2023-09-30T01:21:09;101465.00;;;16.40
11849;BMP180;5983;49.966;8.052;2023-09-30T01:23:37;101470.00;;;16.40
11849;BMP180;5983;49.966;8.052;2023-09-30T01:26:06;101472.00;;;16.30
11849;BMP180;5983;49.966;8.052;2023-09-30T01:28:34;101472.00;;;16.30
11849;BMP180;5983;49.966;8.052;2023-09-30T01:31:01;101475.00;;;16.30
11849;BMP180;5983;49.966;8.052;2023-09-30T01:33:28;101478.00;;;16.30
11849;BMP180;5983;49.966;8.052;2023-09-30T01:35:55;101480.00;;;16.30
11849;BMP180;5983;49.966;8.052;2023-09-30T01:38:21;101481.00;;;16.30
11849;BMP180;5983;49.966;8.052;2023-09-30T01:40:49;101489.00;;;16.30
11849;BMP180;5983;49.966;8.052;2023-09-30T01:43:17;101474.00;;;16.30
11849;BMP180;5983;49.966;8.052;2023-09-30T01:45:43;101473.00;;;16.30
11849;BMP180;5983;49.966;8.052;2023-09-30T01:48:10;101461.00;;;16.30
11849;BMP180;5983;49.966;8.052;2023-09-30T01:50:37;101451.00;;;16.30
11849;BMP180;5983;49.966;8.052;2023-09-30T01:53:04;101455.00;;;16.30
11849;BMP180;5983;49.966;8.052;2023-09-30T01:55:32;101452.00;;;16.30
11849;BMP180;5983;49.966;8.052;2023-09-30T01:58:00;101455.00;;;16.20
11849;BMP180;5983;49.966;8.052;2023-09-30T02:00:27;101469.00;;;16.10
11849;BMP180;5983;49.966;8.052;2023-09-30T02:02:54;101460.00;;;16.10
11849;BMP180;5983;49.966;8.052;2023-09-30T02:05:21;101469.00;;;16.00
11849;BMP180;5983;49.966;8.052;2023-09-30T02:07:49;101465.00;;;16.00
11849;BMP180;5983;49.966;8.052;2023-09-30T02:10:16;101473.00;;;16.00
11849;BMP180;5983;49.966;8.052;2023-09-30T02:12:44;101463.00;;;15.90
11849;BMP180;5983;49.966;8.052;2023-09-30T02:15:12;101469.00;;;15.90
11849;BMP180;5983;49.966;8.052;2023-09-30T02:17:39;101468.00;;;15.80
11849;BMP180;5983;49.966;8.052;2023-09-30T02:20:11;101469.00;;;15.80
11849;BMP180;5983;49.966;8.052;2023-09-30T02:22:42;101469.00;;;15.70
11849;BMP180;5983;49.966;8.052;2023-09-30T02:25:10;101469.00;;;15.70
11849;BMP180;5983;49.966;8.052;2023-09-30T02:27:39;101481.00;;;15.70
11849;BMP180;5983;49.966;8.052;2023-09-30T02:30:08;101488.00;;;15.60
11849;BMP180;5983;49.966;8.052;2023-09-30T02:32:38;101495.00;;;15.60
11849;BMP180;5983;49.966;8.052;2023-09-30T02:35:06;101500.00;;;15.50
11849;BMP180;5983;49.966;8.052;2023-09-30T02:37:34;101504.00;;;15.50
11849;BMP180;5983;49.966;8.052;2023-09-30T02:40:02;101510.00;;;15.50
11849;BMP180;5983;49.966;8.052;2023-09-30T02:42:35;101517.00;;;15.50
11849;BMP180;5983;49.966;8.052;2023-09-30T02:45:03;101519.00;;;15.40
11849;BMP180;5983;49.966;8.052;2023-09-30T02:47:29;101521.00;;;15.40
11849;BMP180;5983;49.966;8.052;2023-09-30T02:49:58;101531.00;;;15.40
11849;BMP180;5983;49.966;8.052;2023-09-30T02:52:25;101521.00;;;15.40
11849;BMP180;5983;49.966;8.052;2023-09-30T02:54:52;101520.00;;;15.40
11849;BMP180;5983;49.966;8.052;2023-09-30T02:57:19;101513.00;;;15.40
11849;BMP180;5983;49.966;8.052;2023-09-30T02:59:47;101504.00;;;15.40
11849;BMP180;5983;49.966;8.052;2023-09-30T03:02:14;101501.00;;;15.40
11849;BMP180;5983;49.966;8.052;2023-09-30T03:04:41;101485.00;;;15.40
11849;BMP180;5983;49.966;8.052;2023-09-30T03:07:10;101487.00;;;15.40
11849;BMP180;5983;49.966;8.052;2023-09-30T03:09:37;101494.00;;;15.40
11849;BMP180;5983;49.966;8.052;2023-09-30T03:12:04;101497.00;;;15.50
11849;BMP180;5983;49.966;8.052;2023-09-30T03:14:34;101498.00;;;15.50
11849;BMP180;5983;49.966;8.052;2023-09-30T03:17:00;101499.00;;;15.50
11849;BMP180;5983;49.966;8.052;2023-09-30T03:19:28;101511.00;;;15.50
11849;BMP180;5983;49.966;8.052;2023-09-30T03:21:55;101515.00;;;15.50
11849;BMP180;5983;49.966;8.052;2023-09-30T03:24:24;101528.00;;;15.50
11849;BMP180;5983;49.966;8.052;2023-09-30T03:26:52;101535.00;;;15.40
11849;BMP180;5983;49.966;8.052;2023-09-30T03:29:19;101541.00;;;15.40
11849;BMP180;5983;49.966;8.052;2023-09-30T03:31:46;101513.00;;;15.40
11849;BMP180;5983;49.966;8.052;2023-09-30T03:34:12;101510.00;;;15.40
11849;BMP180;5983;49.966;8.052;2023-09-30T03:36:41;101516.00;;;15.30
11849;BMP180;5983;49.966;8.052;2023-09-30T03:39:08;101532.00;;;15.30
11849;BMP180;5983;49.966;8.052;2023-09-30T03:41:41;101528.00;;;15.20
11849;BMP180;5983;49.966;8.052;2023-09-30T03:44:08;101532.00;;;15.10
11849;BMP180;5983;49.966;8.052;2023-09-30T03:46:35;101535.00;;;15.10
11849;BMP180;5983;49.966;8.052;2023-09-30T03:49:02;101528.00;;;15.00
11849;BMP180;5983;49.966;8.052;2023-09-30T03:51:29;101536.00;;;15.00
11849;BMP180;5983;49.966;8.052;2023-09-30T03:53:55;101531.00;;;15.00
11849;BMP180;5983;49.966;8.052;2023-09-30T03:56:22;101521.00;;;15.00
11849;BMP180;5983;49.966;8.052;2023-09-30T03:58:50;101515.00;;;15.00
11849;BMP180;5983;49.966;8.052;2023-09-30T04:01:18;101529.00;;;14.90
11849;BMP180;5983;49.966;8.052;2023-09-30T04:03:45;101520.00;;;14.90
11849;BMP180;5983;49.966;8.052;2023-09-30T04:06:12;101525.00;;;14.90
11849;BMP180;5983;49.966;8.052;2023-09-30T04:08:39;101527.00;;;14.90
11849;BMP180;5983;49.966;8.052;2023-09-30T04:11:06;101531.00;;;14.80
11849;BMP180;5983;49.966;8.052;2023-09-30T04:13:32;101530.00;;;14.80
11849;BMP180;5983;49.966;8.052;2023-09-30T04:16:01;101535.00;;;14.80
11849;BMP180;5983;49.966;8.052;2023-09-30T04:18:28;101538.00;;;14.80
11849;BMP180;5983;49.966;8.052;2023-09-30T04:20:55;101526.00;;;14.70
11849;BMP180;5983;49.966;8.052;2023-09-30T04:23:22;101523.00;;;14.70
11849;BMP180;5983;49.966;8.052;2023-09-30T04:25:49;101525.00;;;14.60
11849;BMP180;5983;49.966;8.052;2023-09-30T04:28:16;101517.00;;;14.60
11849;BMP180;5983;49.966;8.052;2023-09-30T04:30:46;101522.00;;;14.60
11849;BMP180;5983;49.966;8.052;2023-09-30T04:33:16;101540.00;;;14.50
11849;BMP180;5983;49.966;8.052;2023-09-30T04:35:44;101543.00;;;14.40
11849;BMP180;5983;49.966;8.052;2023-09-30T04:38:11;101532.00;;;14.40
11849;BMP180;5983;49.966;8.052;2023-09-30T04:40:38;101529.00;;;14.30
11849;BMP180;5983;49.966;8.052;2023-09-30T04:43:05;101533.00;;;14.20
11849;BMP180;5983;49.966;8.052;2023-09-30T04:45:32;101530.00;;;14.20
11849;BMP180;5983;49.966;8.052;2023-09-30T04:47:59;101526.00;;;14.10
11849;BMP180;5983;49.966;8.052;2023-09-30T04:50:29;101536.00;;;14.00
11849;BMP180;5983;49.966;8.052;2023-09-30T04:52:56;101543.00;;;14.00
11849;BMP180;5983;49.966;8.052;2023-09-30T04:55:23;101532.00;;;14.00
11849;BMP180;5983;49.966;8.052;2023-09-30T04:57:50;101532.00;;;13.90
11849;BMP180;5983;49.966;8.052;2023-09-30T05:00:19;101538.00;;;13.90
11849;BMP180;5983;49.966;8.052;2023-09-30T05:02:51;101546.00;;;13.80
11849;BMP180;5983;49.966;8.052;2023-09-30T05:05:19;101545.00;;;13.70
11849;BMP180;5983;49.966;8.052;2023-09-30T05:07:47;101548.00;;;13.70
11849;BMP180;5983;49.966;8.052;2023-09-30T05:10:14;101550.00;;;13.60
11849;BMP180;5983;49.966;8.052;2023-09-30T05:12:42;101552.00;;;13.60
11849;BMP180;5983;49.966;8.052;2023-09-30T05:15:11;101561.00;;;13.50
11849;BMP180;5983;49.966;8.052;2023-09-30T05:17:41;101568.00;;;13.50
11849;BMP180;5983;49.966;8.052;2023-09-30T05:20:09;101555.00;;;13.40
11849;BMP180;5983;49.966;8.052;2023-09-30T05:22:38;101561.00;;;13.40
11849;BMP180;5983;49.966;8.052;2023-09-30T05:25:07;101554.00;;;13.40
11849;BMP180;5983;49.966;8.052;2023-09-30T05:27:34;101549.00;;;13.40
11849;BMP180;5983;49.966;8.052;2023-09-30T05:30:01;101555.00;;;13.40
11849;BMP180;5983;49.966;8.052;2023-09-30T05:32:28;101552.00;;;13.40
11849;BMP180;5983;49.966;8.052;2023-09-30T05:34:56;101546.00;;;13.40
11849;BMP180;5983;49.966;8.052;2023-09-30T05:37:23;101543.00;;;13.40
11849;BMP180;5983;49.966;8.052;2023-09-30T05:39:50;101539.00;;;13.40
11849;BMP180;5983;49.966;8.052;2023-09-30T05:42:18;101544.00;;;13.30
11849;BMP180;5983;49.966;8.052;2023-09-30T05:44:45;101544.00;;;13.30
11849;BMP180;5983;49.966;8.052;2023-09-30T05:47:13;101550.00;;;13.30
11849;BMP180;5983;49.966;8.052;2023-09-30T05:49:40;101557.00;;;13.30
11849;BMP180;5983;49.966;8.052;2023-09-30T05:52:07;101550.00;;;13.30
11849;BMP180;5983;49.966;8.052;2023-09-30T05:54:34;101552.00;;;13.40
11849;BMP180;5983;49.966;8.052;2023-09-30T05:57:02;101560.00;;;13.50
11849;BMP180;5983;49.966;8.052;2023-09-30T05:59:30;101555.00;;;13.60
11849;BMP180;5983;49.966;8.052;2023-09-30T06:01:58;101564.00;;;13.60
11849;BMP180;5983;49.966;8.052;2023-09-30T06:04:25;101574.00;;;13.60
11849;BMP180;5983;49.966;8.052;2023-09-30T06:06:50;101575.00;;;13.60
11849;BMP180;5983;49.966;8.052;2023-09-30T06:09:18;101584.00;;;13.60
11849;BMP180;5983;49.966;8.052;2023-09-30T06:11:45;101584.00;;;13.60
11849;BMP180;5983;49.966;8.052;2023-09-30T06:14:12;101585.00;;;13.60
11849;BMP180;5983;49.966;8.052;2023-09-30T06:16:40;101588.00;;;13.70
11849;BMP180;5983;49.966;8.052;2023-09-30T06:19:07;101579.00;;;13.90
11849;BMP180;5983;49.966;8.052;2023-09-30T06:21:34;101587.00;;;14.20
11849;BMP180;5983;49.966;8.052;2023-09-30T06:24:02;101596.00;;;14.60
11849;BMP180;5983;49.966;8.052;2023-09-30T06:26:28;101591.00;;;15.00
11849;BMP180;5983;49.966;8.052;2023-09-30T06:28:57;101605.00;;;15.50
11849;BMP180;5983;49.966;8.052;2023-09-30T06:31:24;101602.00;;;16.20
11849;BMP180;5983;49.966;8.052;2023-09-30T06:33:53;101609.00;;;16.90
11849;BMP180;5983;49.966;8.052;2023-09-30T06:36:23;101609.00;;;17.30
11849;BMP180;5983;49.966;8.052;2023-09-30T06:38:50;101595.00;;;17.30
11849;BMP180;5983;49.966;8.052;2023-09-30T06:41:18;101585.00;;;17.10
11849;BMP180;5983;49.966;8.052;2023-09-30T06:43:45;101574.00;;;17.10
11849;BMP180;5983;49.966;8.052;2023-09-30T06:46:12;101595.00;;;17.20
11849;BMP180;5983;49.966;8.052;2023-09-30T06:48:39;101598.00;;;17.60
11849;BMP180;5983;49.966;8.052;2023-09-30T06:51:13;101599.00;;;18.10
11849;BMP180;5983;49.966;8.052;2023-09-30T06:53:40;101605.00;;;18.40
11849;BMP180;5983;49.966;8.052;2023-09-30T06:56:07;101622.00;;;18.40
11849;BMP180;5983;49.966;8.052;2023-09-30T06:58:34;101631.00;;;18.60
11849;BMP180;5983;49.966;8.052;2023-09-30T07:01:01;101646.00;;;19.30
11849;BMP180;5983;49.966;8.052;2023-09-30T07:03:27;101646.00;;;19.80
11849;BMP180;5983;49.966;8.052;2023-09-30T07:05:55;101643.00;;;20.40
11849;BMP180;5983;49.966;8.052;2023-09-30T07:08:27;101650.00;;;21.10
11849;BMP180;5983;49.966;8.052;2023-09-30T07:10:55;101634.00;;;21.60
11849;BMP180;5983;49.966;8.052;2023-09-30T07:13:22;101625.00;;;22.10
11849;BMP180;5983;49.966;8.052;2023-09-30T07:15:49;101620.00;;;22.30
11849;BMP180;5983;49.966;8.052;2023-09-30T07:18:16;101627.00;;;22.40
11849;BMP180;5983;49.966;8.052;2023-09-30T07:20:43;101633.00;;;22.70
11849;BMP180;5983;49.966;8.052;2023-09-30T07:23:09;101639.00;;;23.10
11849;BMP180;5983;49.966;8.052;2023-09-30T07:25:40;101649.00;;;23.50
11849;BMP180;5983;49.966;8.052;2023-09-30T07:28:06;101650.00;;;24.00
11849;BMP180;5983;49.966;8.052;2023-09-30T07:30:37;101655.00;;;24.40
11849;BMP180;5983;49.966;8.052;2023-09-30T07:33:04;101664.00;;;24.80
11849;BMP180;5983;49.966;8.052;2023-09-30T07:35:31;101659.00;;;25.10
11849;BMP180;5983;49.966;8.052;2023-09-30T07:37:58;101651.00;;;25.40
11849;BMP180;5983;49.966;8.052;2023-09-30T07:40:25;101650.00;;;25.90
11849;BMP180;5983;49.966;8.052;2023-09-30T07:42:54;101644.00;;;25.90
11849;BMP180;5983;49.966;8.052;2023-09-30T07:45:21;101647.00;;;26.10
11849;BMP180;5983;49.966;8.052;2023-09-30T07:47:48;101649.00;;;26.30
11849;BMP180;5983;49.966;8.052;2023-09-30T07:50:16;101653.00;;;26.50
11849;BMP180;5983;49.966;8.052;2023-09-30T07:52:43;101652.00;;;26.70
11849;BMP180;5983;49.966;8.052;2023-09-30T07:55:10;101658.00;;;27.10
11849;BMP180;5983;49.966;8.052;2023-09-30T07:57:40;101657.00;;;27.50
11849;BMP180;5983;49.966;8.052;2023-09-30T08:00:10;101660.00;;;27.90
11849;BMP180;5983;49.966;8.052;2023-09-30T08:02:40;101662.00;;;28.30
11849;BMP180;5983;49.966;8.052;2023-09-30T08:05:08;101661.00;;;28.50
11849;BMP180;5983;49.966;8.052;2023-09-30T08:07:35;101665.00;;;28.50
11849;BMP180;5983;49.966;8.052;2023-09-30T08:10:02;101661.00;;;28.70
11849;BMP180;5983;49.966;8.052;2023-09-30T08:12:30;101677.00;;;29.20
11849;BMP180;5983;49.966;8.052;2023-09-30T08:14:57;101681.00;;;29.50
11849;BMP180;5983;49.966;8.052;2023-09-30T08:17:25;101680.00;;;29.60
11849;BMP180;5983;49.966;8.052;2023-09-30T08:19:52;101682.00;;;30.20
11849;BMP180;5983;49.966;8.052;2023-09-30T08:22:19;101688.00;;;30.60
11849;BMP180;5983;49.966;8.052;2023-09-30T08:24:46;101700.00;;;31.00
11849;BMP180;5983;49.966;8.052;2023-09-30T08:27:13;101688.00;;;31.20
11849;BMP180;5983;49.966;8.052;2023-09-30T08:29:40;101696.00;;;31.60
11849;BMP180;5983;49.966;8.052;2023-09-30T08:32:08;101707.00;;;31.60
11849;BMP180;5983;49.966;8.052;2023-09-30T08:34:36;101709.00;;;32.10
11849;BMP180;5983;49.966;8.052;2023-09-30T08:37:03;101711.00;;;32.50
11849;BMP180;5983;49.966;8.052;2023-09-30T08:39:30;101711.00;;;32.70
11849;BMP180;5983;49.966;8.052;2023-09-30T08:41:57;101708.00;;;33.00
11849;BMP180;5983;49.966;8.052;2023-09-30T08:44:24;101723.00;;;33.20
11849;BMP180;5983;49.966;8.052;2023-09-30T08:46:52;101721.00;;;33.30
11849;BMP180;5983;49.966;8.052;2023-09-30T08:49:19;101727.00;;;33.60
11849;BMP180;5983;49.966;8.052;2023-09-30T08:51:48;101722.00;;;33.70
11849;BMP180;5983;49.966;8.052;2023-09-30T08:54:16;101718.00;;;34.10
11849;BMP180;5983;49.966;8.052;2023-09-30T08:56:44;101715.00;;;34.20
11849;BMP180;5983;49.966;8.052;2023-09-30T08:59:14;101724.00;;;34.00
11849;BMP180;5983;49.966;8.052;2023-09-30T09:01:41;101721.00;;;34.10
11849;BMP180;5983;49.966;8.052;2023-09-30T09:04:08;101729.00;;;34.70
11849;BMP180;5983;49.966;8.052;2023-09-30T09:06:36;101727.00;;;34.70
11849;BMP180;5983;49.966;8.052;2023-09-30T09:09:17;101727.00;;;35.00
11849;BMP180;5983;49.966;8.052;2023-09-30T09:11:45;101727.00;;;35.40
11849;BMP180;5983;49.966;8.052;2023-09-30T09:14:12;101727.00;;;35.60
11849;BMP180;5983;49.966;8.052;2023-09-30T09:16:51;101731.00;;;35.40
11849;BMP180;5983;49.966;8.052;2023-09-30T09:19:19;101732.00;;;35.60
11849;BMP180;5983;49.966;8.052;2023-09-30T09:21:57;101737.00;;;35.90
11849;BMP180;5983;49.966;8.052;2023-09-30T09:24:30;101737.00;;;36.00
11849;BMP180;5983;49.966;8.052;2023-09-30T09:27:04;101738.00;;;36.10
11849;BMP180;5983;49.966;8.052;2023-09-30T09:29:32;101732.00;;;36.10
11849;BMP180;5983;49.966;8.052;2023-09-30T09:32:12;101734.00;;;34.80
11849;BMP180;5983;49.966;8.052;2023-09-30T09:35:01;101738.00;;;34.60
11849;BMP180;5983;49.966;8.052;2023-09-30T09:37:31;101739.00;;;35.20
11849;BMP180;5983;49.966;8.052;2023-09-30T09:40:00;101746.00;;;35.80
11849;BMP180;5983;49.966;8.052;2023-09-30T09:42:28;101745.00;;;36.20
11849;BMP180;5983;49.966;8.052;2023-09-30T09:44:56;101738.00;;;36.60
11849;BMP180;5983;49.966;8.052;2023-09-30T09:47:24;101735.00;;;36.90
11849;BMP180;5983;49.966;8.052;2023-09-30T09:49:51;101736.00;;;37.10
11849;BMP180;5983;49.966;8.052;2023-09-30T09:52:19;101739.00;;;37.50
11849;BMP180;5983;49.966;8.052;2023-09-30T09:54:47;101734.00;;;37.30
11849;BMP180;5983;49.966;8.052;2023-09-30T09:57:17;101718.00;;;37.00
11849;BMP180;5983;49.966;8.052;2023-09-30T09:59:45;101715.00;;;37.10
11849;BMP180;5983;49.966;8.052;2023-09-30T10:02:14;101713.00;;;37.50
11849;BMP180;5983;49.966;8.052;2023-09-30T10:04:42;101699.00;;;37.20
11849;BMP180;5983;49.966;8.052;2023-09-30T10:07:15;101703.00;;;37.00
11849;BMP180;5983;49.966;8.052;2023-09-30T10:09:46;101696.00;;;37.30
11849;BMP180;5983;49.966;8.052;2023-09-30T10:12:16;101694.00;;;36.70
11849;BMP180;5983;49.966;8.052;2023-09-30T10:14:44;101699.00;;;36.80
11849;BMP180;5983;49.966;8.052;2023-09-30T10:17:11;101692.00;;;36.80
11849;BMP180;5983;49.966;8.052;2023-09-30T10:20:02;101698.00;;;37.20
11849;BMP180;5983;49.966;8.052;2023-09-30T10:22:30;101700.00;;;37.20
11849;BMP180;5983;49.966;8.052;2023-09-30T10:24:58;101703.00;;;37.40
11849;BMP180;5983;49.966;8.052;2023-09-30T10:27:34;101695.00;;;37.60
11849;BMP180;5983;49.966;8.052;2023-09-30T10:30:10;101695.00;;;37.70
11849;BMP180;5983;49.966;8.052;2023-09-30T10:35:48;101690.00;;;37.90
11849;BMP180;5983;49.966;8.052;2023-09-30T10:38:39;101684.00;;;37.90
11849;BMP180;5983;49.966;8.052;2023-09-30T10:41:09;101690.00;;;37.50
11849;BMP180;5983;49.966;8.052;2023-09-30T10:43:40;101687.00;;;37.80
11849;BMP180;5983;49.966;8.052;2023-09-30T10:46:30;101700.00;;;37.80
11849;BMP180;5983;49.966;8.052;2023-09-30T10:49:29;101702.00;;;38.00
11849;BMP180;5983;49.966;8.052;2023-09-30T10:52:00;101692.00;;;38.00
11849;BMP180;5983;49.966;8.052;2023-09-30T10:54:56;101694.00;;;38.00
11849;BMP180;5983;49.966;8.052;2023-09-30T10:57:43;101691.00;;;38.00
11849;BMP180;5983;49.966;8.052;2023-09-30T11:00:14;101694.00;;;37.50
11849;BMP180;5983;49.966;8.052;2023-09-30T11:02:49;101686.00;;;37.40
11849;BMP180;5983;49.966;8.052;2023-09-30T11:05:17;101686.00;;;37.20
11849;BMP180;5983;49.966;8.052;2023-09-30T11:07:48;101690.00;;;37.40
11849;BMP180;5983;49.966;8.052;2023-09-30T11:10:17;101691.00;;;37.70
11849;BMP180;5983;49.966;8.052;2023-09-30T11:12:54;101695.00;;;37.70
11849;BMP180;5983;49.966;8.052;2023-09-30T11:15:23;101694.00;;;37.80
11849;BMP180;5983;49.966;8.052;2023-09-30T11:17:51;101698.00;;;38.00
11849;BMP180;5983;49.966;8.052;2023-09-30T11:20:18;101698.00;;;38.50
11849;BMP180;5983;49.966;8.052;2023-09-30T11:22:47;101704.00;;;38.20
11849;BMP180;5983;49.966;8.052;2023-09-30T11:25:17;101697.00;;;38.10
11849;BMP180;5983;49.966;8.052;2023-09-30T11:27:45;101700.00;;;38.20
11849;BMP180;5983;49.966;8.052;2023-09-30T11:30:13;101701.00;;;38.60
11849;BMP180;5983;49.966;8.052;2023-09-30T11:32:41;101703.00;;;38.30
11849;BMP180;5983;49.966;8.052;2023-09-30T11:35:09;101704.00;;;37.70
11849;BMP180;5983;49.966;8.052;2023-09-30T11:37:36;101704.00;;;36.40
11849;BMP180;5983;49.966;8.052;2023-09-30T11:40:11;101696.00;;;35.10
11849;BMP180;5983;49.966;8.052;2023-09-30T11:42:39;101691.00;;;35.00
11849;BMP180;5983;49.966;8.052;2023-09-30T11:45:18;101686.00;;;35.90
11849;BMP180;5983;49.966;8.052;2023-09-30T11:47:47;101683.00;;;36.80
11849;BMP180;5983;49.966;8.052;2023-09-30T11:50:14;101680.00;;;37.00
11849;BMP180;5983;49.966;8.052;2023-09-30T11:52:44;101688.00;;;37.00
11849;BMP180;5983;49.966;8.052;2023-09-30T11:55:12;101686.00;;;35.70
11849;BMP180;5983;49.966;8.052;2023-09-30T11:57:39;101687.00;;;33.70
11849;BMP180;5983;49.966;8.052;2023-09-30T12:00:07;101686.00;;;32.30
11849;BMP180;5983;49.966;8.052;2023-09-30T12:02:39;101679.00;;;31.20
11849;BMP180;5983;49.966;8.052;2023-09-30T12:05:08;101671.00;;;30.20
11849;BMP180;5983;49.966;8.052;2023-09-30T12:07:37;101672.00;;;29.20
11849;BMP180;5983;49.966;8.052;2023-09-30T12:10:07;101673.00;;;30.40
11849;BMP180;5983;49.966;8.052;2023-09-30T12:12:34;101655.00;;;32.10
11849;BMP180;5983;49.966;8.052;2023-09-30T12:15:01;101660.00;;;33.30
11849;BMP180;5983;49.966;8.052;2023-09-30T12:17:28;101658.00;;;34.10
11849;BMP180;5983;49.966;8.052;2023-09-30T12:19:54;101646.00;;;34.50
11849;BMP180;5983;49.966;8.052;2023-09-30T12:22:23;101651.00;;;35.00
11849;BMP180;5983;49.966;8.052;2023-09-30T12:24:50;101643.00;;;35.40
11849;BMP180;5983;49.966;8.052;2023-09-30T12:27:17;101643.00;;;35.60
11849;BMP180;5983;49.966;8.052;2023-09-30T12:29:47;101643.00;;;35.80
11849;BMP180;5983;49.966;8.052;2023-09-30T12:32:18;101649.00;;;36.10
11849;BMP180;5983;49.966;8.052;2023-09-30T12:34:51;101640.00;;;36.10
11849;BMP180;5983;49.966;8.052;2023-09-30T12:37:23;101636.00;;;34.90
11849;BMP180;5983;49.966;8.052;2023-09-30T12:39:57;101628.00;;;35.40
11849;BMP180;5983;49.966;8.052;2023-09-30T12:42:24;101634.00;;;35.50
11849;BMP180;5983;49.966;8.052;2023-09-30T12:44:55;101628.00;;;35.60
11849;BMP180;5983;49.966;8.052;2023-09-30T12:47:24;101639.00;;;35.10
11849;BMP180;5983;49.966;8.052;2023-09-30T12:49:55;101647.00;;;33.30
11849;BMP180;5983;49.966;8.052;2023-09-30T12:52:25;101639.00;;;33.20
11849;BMP180;5983;49.966;8.052;2023-09-30T12:54:54;101638.00;;;33.80
11849;BMP180;5983;49.966;8.052;2023-09-30T12:57:21;101642.00;;;34.20
11849;BMP180;5983;49.966;8.052;2023-09-30T12:59:49;101633.00;;;34.20
11849;BMP180;5983;49.966;8.052;2023-09-30T13:02:20;101623.00;;;33.90
11849;BMP180;5983;49.966;8.052;2023-09-30T13:04:49;101622.00;;;33.80
11849;BMP180;5983;49.966;8.052;2023-09-30T13:07:17;101624.00;;;33.40
11849;BMP180;5983;49.966;8.052;2023-09-30T13:09:48;101619.00;;;33.30
11849;BMP180;5983;49.966;8.052;2023-09-30T13:12:22;101614.00;;;33.10
11849;BMP180;5983;49.966;8.052;2023-09-30T13:14:50;101617.00;;;32.40
11849;BMP180;5983;49.966;8.052;2023-09-30T13:17:23;101605.00;;;31.70
11849;BMP180;5983;49.966;8.052;2023-09-30T13:19:54;101608.00;;;31.00
11849;BMP180;5983;49.966;8.052;2023-09-30T13:22:25;101608.00;;;30.70
11849;BMP180;5983;49.966;8.052;2023-09-30T13:25:01;101598.00;;;30.90
11849;BMP180;5983;49.966;8.052;2023-09-30T13:27:30;101598.00;;;30.50
11849;BMP180;5983;49.966;8.052;2023-09-30T13:30:00;101588.00;;;30.50
11849;BMP180;5983;49.966;8.052;2023-09-30T13:32:29;101596.00;;;30.10
11849;BMP180;5983;49.966;8.052;2023-09-30T13:34:59;101583.00;;;29.90
11849;BMP180;5983;49.966;8.052;2023-09-30T13:37:28;101592.00;;;30.10
11849;BMP180;5983;49.966;8.052;2023-09-30T13:40:02;101589.00;;;30.00
11849;BMP180;5983;49.966;8.052;2023-09-30T13:42:33;101594.00;;;30.20
11849;BMP180;5983;49.966;8.052;2023-09-30T13:45:02;101587.00;;;30.60
11849;BMP180;5983;49.966;8.052;2023-09-30T13:47:33;101585.00;;;30.50
11849;BMP180;5983;49.966;8.052;2023-09-30T13:50:03;101583.00;;;30.40
11849;BMP180;5983;49.966;8.052;2023-09-30T13:52:33;101579.00;;;30.50
11849;BMP180;5983;49.966;8.052;2023-09-30T13:55:05;101574.00;;;30.60
11849;BMP180;5983;49.966;8.052;2023-09-30T13:57:35;101574.00;;;30.70
11849;BMP180;5983;49.966;8.052;2023-09-30T14:00:05;101580.00;;;30.90
11849;BMP180;5983;49.966;8.052;2023-09-30T14:02:37;101577.00;;;30.60
11849;BMP180;5983;49.966;8.052;2023-09-30T14:05:07;101572.00;;;29.70
11849;BMP180;5983;49.966;8.052;2023-09-30T14:07:36;101570.00;;;29.50
11849;BMP180;5983;49.966;8.052;2023-09-30T14:10:09;101562.00;;;29.30
11849;BMP180;5983;49.966;8.052;2023-09-30T14:12:38;101560.00;;;28.90
11849;BMP180;5983;49.966;8.052;2023-09-30T14:15:09;101558.00;;;28.60
11849;BMP180;5983;49.966;8.052;2023-09-30T14:17:39;101554.00;;;28.30
11849;BMP180;5983;49.966;8.052;2023-09-30T14:20:10;101552.00;;;28.00